createdAt,value
2022-11-18T00:06:11.982Z,32.23
2022-11-18T00:11:41.391Z,32.13
2022-11-18T00:16:44.800Z,30.23
2022-11-18T00:21:48.761Z,25.17
2022-11-18T00:26:51.888Z,30.00
2022-11-18T00:31:56.277Z,23.93
2022-11-18T00:36:59.090Z,30.73
2022-11-18T00:42:20.253Z,24.07
2022-11-18T00:47:23.201Z,25.30
2022-11-18T00:52:25.905Z,26.13
2022-11-18T00:57:29.012Z,23.83
2022-11-18T01:02:31.921Z,31.17
2022-11-18T01:07:34.735Z,31.07
2022-11-18T01:12:56.103Z,27.20
2022-11-18T01:17:59.037Z,19.90
2022-11-18T01:23:02.093Z,103.43
2022-11-18T01:28:05.367Z,45.90
2022-11-18T01:33:09.029Z,27.00
2022-11-18T01:38:16.081Z,31.80
2022-11-18T01:43:23.975Z,23.13
2022-11-18T01:48:35.010Z,32.47
2022-11-18T01:54:07.521Z,29.80
2022-11-18T01:59:19.089Z,33.17
2022-11-18T02:04:23.139Z,21.27
2022-11-18T02:09:26.044Z,27.53
2022-11-18T02:14:35.202Z,24.50
2022-11-18T02:19:47.462Z,28.33
2022-11-18T02:25:36.460Z,29.57
2022-11-18T02:30:53.751Z,22.07
2022-11-18T02:36:17.169Z,21.10
2022-11-18T02:41:27.204Z,23.63
2022-11-18T02:46:37.012Z,22.77
2022-11-18T02:51:41.976Z,21.97
2022-11-18T02:56:46.295Z,22.97
2022-11-18T03:01:49.316Z,24.23
2022-11-18T03:07:11.106Z,26.90
2022-11-18T03:12:46.730Z,15.60
2022-11-18T03:18:16.651Z,24.53
2022-11-18T03:23:54.216Z,19.60
2022-11-18T03:29:03.282Z,21.30
2022-11-18T03:34:27.487Z,20.33
2022-11-18T03:39:34.551Z,21.30
2022-11-18T03:44:41.873Z,17.07
2022-11-18T03:49:56.244Z,26.90
2022-11-18T03:55:07.182Z,29.23
2022-11-18T04:00:14.300Z,21.40
2022-11-18T04:05:19.518Z,28.57
2022-11-18T04:10:40.279Z,30.97
2022-11-18T04:15:43.368Z,40.53
2022-11-18T04:20:46.512Z,38.13
2022-11-18T04:25:49.778Z,35.87
2022-11-18T04:30:52.709Z,32.63
2022-11-18T04:35:55.970Z,36.77
2022-11-18T04:40:58.898Z,36.87
2022-11-18T04:46:01.775Z,24.70
2022-11-18T04:51:06.083Z,48.37
2022-11-18T04:56:09.162Z,63.53
2022-11-18T05:01:12.027Z,69.67
2022-11-18T05:06:14.962Z,38.13
2022-11-18T05:11:36.474Z,33.20
2022-11-18T05:16:39.458Z,48.05
2022-11-18T05:21:42.461Z,33.73
2022-11-18T05:26:46.174Z,52.07
2022-11-18T05:31:49.693Z,47.03
2022-11-18T05:36:52.591Z,43.77
2022-11-18T05:42:13.875Z,45.33
2022-11-18T05:47:16.808Z,36.35
2022-11-18T05:52:19.667Z,34.43
2022-11-18T05:57:22.589Z,47.73
2022-11-18T06:02:25.558Z,43.80
2022-11-18T06:07:48.831Z,51.40
2022-11-18T06:12:56.060Z,69.00
2022-11-18T06:18:31.396Z,44.77
2022-11-18T06:23:41.501Z,41.27
2022-11-18T06:28:48.580Z,57.93
2022-11-18T06:33:52.540Z,48.93
2022-11-18T06:38:55.428Z,53.87
2022-11-18T06:43:58.366Z,93.77
2022-11-18T06:49:02.420Z,88.57
2022-11-18T06:54:10.500Z,56.10
2022-11-18T06:59:14.390Z,45.97
2022-11-18T07:04:17.351Z,70.50
2022-11-18T07:09:20.475Z,81.27
2022-11-18T07:14:23.840Z,88.13
2022-11-18T07:19:30.211Z,51.17
2022-11-18T07:24:38.097Z,39.67
2022-11-18T07:29:41.188Z,75.27
2022-11-18T07:34:45.129Z,54.50
2022-11-18T07:39:48.169Z,41.97
2022-11-18T07:44:51.146Z,31.77
2022-11-18T07:49:54.311Z,32.47
2022-11-18T07:54:57.179Z,89.30
2022-11-18T08:00:00.207Z,48.90
2022-11-18T08:05:03.457Z,39.53
2022-11-18T08:10:07.562Z,41.60
2022-11-18T08:15:11.169Z,42.93
2022-11-18T08:20:14.829Z,34.80
2022-11-18T08:25:17.794Z,38.87
2022-11-18T08:30:21.446Z,32.93
2022-11-18T08:35:25.923Z,37.90
2022-11-18T08:40:29.024Z,42.57
2022-11-18T08:45:32.270Z,33.20
2022-11-18T08:50:35.134Z,29.87
2022-11-18T08:55:38.102Z,33.07
2022-11-18T09:00:41.208Z,29.53
2022-11-18T09:05:44.560Z,26.80
2022-11-18T09:10:47.521Z,30.67
2022-11-18T09:15:50.828Z,28.30
2022-11-18T09:20:59.097Z,34.07
2022-11-18T09:26:06.723Z,29.17
2022-11-18T09:31:14.383Z,32.27
2022-11-18T09:36:24.199Z,32.30
2022-11-18T09:41:51.078Z,24.80
2022-11-18T09:47:33.792Z,27.90
2022-11-18T09:52:40.716Z,26.13
2022-11-18T09:57:53.981Z,23.23
2022-11-18T10:03:13.899Z,35.30
2022-11-18T10:08:31.882Z,28.17
2022-11-18T10:13:46.652Z,38.90
2022-11-18T10:19:01.463Z,72.30
2022-11-18T10:24:21.496Z,66.50
2022-11-18T10:29:25.954Z,38.40
2022-11-18T10:34:29.944Z,27.70
2022-11-18T10:39:33.666Z,32.60
2022-11-18T10:44:38.710Z,32.60
2022-11-18T10:49:41.626Z,44.17
2022-11-18T10:54:44.617Z,23.70
2022-11-18T10:59:51.234Z,30.07
2022-11-18T11:04:54.570Z,34.57
2022-11-18T11:10:12.814Z,37.00
2022-11-18T11:15:28.748Z,28.67
2022-11-18T11:20:31.678Z,29.23
2022-11-18T11:31:32.066Z,23.57
2022-11-18T11:37:17.955Z,30.63
2022-11-18T11:42:42.409Z,35.10
2022-11-18T11:48:03.442Z,29.23
2022-11-18T11:53:32.754Z,26.13
2022-11-18T11:59:01.947Z,25.60
2022-11-18T12:04:43.901Z,22.90
2022-11-18T12:09:57.960Z,16.13
2022-11-18T12:15:26.005Z,34.77
2022-11-18T12:20:37.432Z,26.67
2022-11-18T12:25:53.985Z,22.85
2022-11-18T12:31:15.765Z,24.40
2022-11-18T12:36:45.331Z,32.00
2022-11-18T12:42:12.888Z,26.63
2022-11-18T12:47:37.482Z,26.67
2022-11-18T12:52:40.316Z,21.83
2022-11-18T12:57:43.250Z,26.33
2022-11-18T13:03:01.553Z,25.27
2022-11-18T13:08:18.137Z,21.57
2022-11-18T13:13:32.683Z,23.07
2022-11-18T13:18:49.391Z,22.23
2022-11-18T13:24:01.061Z,22.43
2022-11-18T13:29:33.037Z,21.90
2022-11-18T13:34:48.467Z,23.58
2022-11-18T13:39:52.466Z,18.97
2022-11-18T13:44:58.806Z,20.17
2022-11-18T13:50:10.756Z,25.87
2022-11-18T13:55:33.859Z,18.03
2022-11-18T14:00:36.985Z,22.63
2022-11-18T14:05:41.290Z,27.67
2022-11-18T14:10:45.184Z,30.57
2022-11-18T14:15:48.097Z,24.10
2022-11-18T14:20:53.985Z,24.97
2022-11-18T14:25:58.662Z,23.47
2022-11-18T14:31:26.151Z,24.83
2022-11-18T14:36:29.933Z,28.77
2022-11-18T14:41:47.573Z,32.63
2022-11-18T14:47:09.017Z,35.10
2022-11-18T14:52:11.931Z,20.90
2022-11-18T14:57:17.333Z,22.37
2022-11-18T15:02:20.356Z,26.57
2022-11-18T15:07:24.266Z,37.77
2022-11-18T15:12:27.340Z,34.23
2022-11-18T15:17:31.050Z,23.87
2022-11-18T15:22:34.744Z,24.80
2022-11-18T15:27:38.062Z,33.37
2022-11-18T15:32:41.209Z,28.73
2022-11-18T15:37:44.297Z,28.67
2022-11-18T15:42:51.764Z,36.03
2022-11-18T15:47:55.439Z,63.83
2022-11-18T15:52:58.415Z,97.27
2022-11-18T15:58:01.364Z,41.47
2022-11-18T16:03:04.252Z,40.47
2022-11-18T16:08:07.127Z,38.73
2022-11-18T16:13:09.973Z,30.23
2022-11-18T16:18:12.884Z,38.63
2022-11-18T16:23:15.695Z,35.53
2022-11-18T16:28:18.544Z,35.77
2022-11-18T16:33:21.786Z,37.43
2022-11-18T16:38:25.252Z,37.97
2022-11-18T16:43:28.128Z,39.93
2022-11-18T16:48:31.197Z,41.63
2022-11-18T16:53:34.044Z,44.97
2022-11-18T16:58:36.935Z,59.93
2022-11-18T17:03:40.333Z,48.53
2022-11-18T17:08:43.241Z,56.27
2022-11-18T17:13:46.181Z,35.97
2022-11-18T17:18:56.005Z,44.10
2022-11-18T17:23:59.066Z,33.80
2022-11-18T17:29:02.151Z,63.47
2022-11-18T17:34:05.543Z,44.23
2022-11-18T17:39:11.584Z,39.10
2022-11-18T17:44:17.788Z,44.40
2022-11-18T17:49:23.351Z,45.73
2022-11-18T17:54:29.233Z,46.03
2022-11-18T17:59:32.726Z,66.90
2022-11-18T18:04:35.699Z,70.17
2022-11-18T18:09:38.667Z,54.73
2022-11-18T18:14:43.518Z,54.87
2022-11-18T18:19:46.635Z,62.10
2022-11-18T18:24:49.527Z,36.87
2022-11-18T18:29:52.650Z,65.67
2022-11-18T18:34:55.612Z,61.50
2022-11-18T18:39:59.032Z,36.43
2022-11-18T18:45:20.177Z,72.23
2022-11-18T18:50:29.340Z,69.57
2022-11-18T18:55:32.660Z,80.87
2022-11-18T19:00:35.698Z,41.63
2022-11-18T19:06:12.631Z,34.23
2022-11-18T19:11:06.205Z,27.20
2022-11-18T19:16:09.424Z,30.43
2022-11-18T19:21:12.250Z,25.93
2022-11-18T19:26:16.026Z,22.97
2022-11-18T19:31:20.277Z,21.77
2022-11-18T19:36:23.159Z,22.10
2022-11-18T19:41:26.135Z,23.70
2022-11-18T19:46:31.726Z,21.30
2022-11-18T19:51:36.585Z,21.67
2022-11-18T19:56:39.558Z,19.63
2022-11-18T20:01:43.595Z,19.43
2022-11-18T20:06:46.688Z,18.80
2022-11-18T20:11:49.552Z,39.03
2022-11-18T20:16:52.550Z,18.10
2022-11-18T20:21:55.479Z,17.17
2022-11-18T20:26:58.428Z,15.57
2022-11-18T20:32:01.448Z,14.53
2022-11-18T20:37:04.492Z,13.03
2022-11-18T20:42:26.431Z,11.00
2022-11-18T20:47:29.434Z,13.60
2022-11-18T20:52:34.879Z,15.23
2022-11-18T20:57:37.855Z,15.73
2022-11-18T21:02:40.690Z,9.67
2022-11-18T21:07:43.688Z,9.90
2022-11-18T21:13:05.641Z,12.77
2022-11-18T21:18:08.817Z,13.57
2022-11-18T21:23:12.171Z,10.37
2022-11-18T21:28:15.011Z,9.83
2022-11-18T21:33:17.874Z,12.50
2022-11-18T21:38:20.726Z,12.37
2022-11-18T21:43:50.274Z,12.73
2022-11-18T21:48:47.218Z,13.63
2022-11-18T21:53:50.102Z,12.53
2022-11-18T21:58:53.095Z,13.73
2022-11-18T22:03:59.292Z,15.07
2022-11-18T22:09:04.132Z,16.27
2022-11-18T22:14:08.069Z,13.90
2022-11-18T22:19:10.943Z,19.77
2022-11-18T22:24:13.863Z,14.83
2022-11-18T22:29:16.942Z,17.07
2022-11-18T22:34:20.159Z,22.93
2022-11-18T22:39:23.111Z,18.57
2022-11-18T22:44:26.822Z,18.87
2022-11-18T22:49:29.565Z,18.17
2022-11-18T22:54:40.497Z,18.13
2022-11-18T22:59:43.483Z,15.40
2022-11-18T23:04:46.365Z,15.47
2022-11-18T23:09:49.337Z,16.17
2022-11-18T23:14:52.241Z,21.20
2022-11-18T23:19:55.188Z,20.03
2022-11-18T23:24:58.143Z,20.30
2022-11-18T23:30:01.042Z,19.53
2022-11-18T23:35:05.621Z,21.67
2022-11-18T23:40:09.432Z,20.50
2022-11-18T23:45:12.302Z,18.97
2022-11-18T23:50:15.431Z,18.73
2022-11-18T23:55:18.093Z,22.57
